Time;durP1;ratioP1;P1;durP2;ratioP2;P2;SDS_P1;SDS_P2;PMS_P1;PMS_P2;Temp;Humidity;BMP_temperature;BMP_pressure;BME280_temperature;BME280_humidity;BME280_pressure;Samples;Min_cycle;Max_cycle;Signal;HPM_P1;HPM_P2
2023/04/18 03:57:51;;;;;;;9.02;6.55;;;;;;;14.08;85.06;100366.09;5602767;31;199167;-58
2023/04/18 04:00:54;;;;;;;7.75;5.72;;;;;;;14.08;85.06;100366.09;5583547;31;33275;-58
2023/04/18 04:03:56;;;;;;;8.20;6.15;;;;;;;13.71;83.07;100367.16;5583631;31;32971;-56
2023/04/18 04:06:59;;;;;;;6.97;5.85;;;;;;;13.83;94.68;100372.84;5583798;31;33586;-56
2023/04/18 04:10:01;;;;;;;10.48;6.30;;;;;;;13.98;94.01;100363.63;5572418;32;33525;-56
2023/04/18 04:13:04;;;;;;;8.13;6.32;;;;;;;13.85;86.92;100367.94;5564015;32;33731;-56
2023/04/18 04:16:07;;;;;;;7.85;6.18;;;;;;;14.04;89.79;100373.22;5563924;32;34426;-56
2023/04/18 04:19:10;;;;;;;7.37;5.70;;;;;;;14.06;87.61;100376.37;5562972;32;33566;-56
2023/04/18 04:22:13;;;;;;;9.35;6.25;;;;;;;14.09;92.60;100383.88;5563922;32;33247;-56
2023/04/18 04:25:16;;;;;;;7.50;5.97;;;;;;;13.95;83.01;100389.28;5563498;32;33326;-56
2023/04/18 04:28:22;;;;;;;9.15;6.03;;;;;;;13.95;86.48;100392.00;5563945;32;33620;-56
2023/04/18 04:31:24;;;;;;;8.45;6.57;;;;;;;14.16;85.85;100388.84;5563744;32;33361;-56
2023/04/18 04:34:27;;;;;;;8.15;5.80;;;;;;;14.08;79.67;100393.06;5563899;32;34402;-56
2023/04/18 04:37:29;;;;;;;7.32;5.85;;;;;;;14.06;80.85;100393.34;5563813;32;34149;-56
2023/04/18 04:40:33;;;;;;;8.20;5.82;;;;;;;14.09;90.46;100394.66;5563782;32;34427;-56
2023/04/18 04:43:35;;;;;;;7.53;5.78;;;;;;;14.15;93.55;100406.91;5563569;32;34352;-56
2023/04/18 04:46:39;;;;;;;9.30;6.78;;;;;;;14.13;93.38;100406.41;5563770;32;33298;-56
2023/04/18 04:49:43;;;;;;;7.97;5.87;;;;;;;14.19;86.56;100401.72;5563698;32;33460;-56
2023/04/18 04:52:45;;;;;;;8.55;6.22;;;;;;;14.16;89.12;100407.72;5563754;32;34146;-56
2023/04/18 04:55:47;;;;;;;8.07;5.82;;;;;;;13.99;80.58;100403.75;5563538;32;33567;-56
2023/04/18 04:58:52;;;;;;;8.68;6.43;;;;;;;13.99;83.52;100411.03;5563559;32;33252;-56
2023/04/18 05:01:56;;;;;;;9.30;5.62;;;;;;;13.98;84.21;100406.75;5563530;32;34393;-56
2023/04/18 05:04:58;;;;;;;8.50;6.43;;;;;;;13.94;87.67;100411.13;5566062;32;33584;-56
2023/04/18 05:08:01;;;;;;;8.55;6.07;;;;;;;14.07;90.58;100413.84;5575016;32;33575;-56
2023/04/18 05:11:04;;;;;;;10.80;6.53;;;;;;;14.05;87.51;100413.31;5569743;31;33586;-56
2023/04/18 05:14:06;;;;;;;8.77;6.40;;;;;;;14.05;83.35;100410.63;5569469;32;34337;-56
2023/04/18 05:17:08;;;;;;;8.07;6.37;;;;;;;14.09;81.97;100414.31;5569684;32;33614;-56
2023/04/18 05:20:11;;;;;;;11.27;6.43;;;;;;;14.05;87.02;100417.94;5569238;32;34202;-56
2023/04/18 05:23:13;;;;;;;8.20;6.70;;;;;;;13.86;82.07;100415.34;5569307;32;34284;-56
2023/04/18 05:26:16;;;;;;;8.57;6.37;;;;;;;13.74;83.18;100417.75;5569191;32;34205;-56
2023/04/18 05:29:18;;;;;;;8.77;6.37;;;;;;;13.90;93.35;100420.94;5569654;32;33546;-56
2023/04/18 05:32:21;;;;;;;10.25;6.68;;;;;;;13.90;87.75;100412.84;5568791;32;33651;-56
2023/04/18 05:35:23;;;;;;;8.98;6.97;;;;;;;14.06;94.11;100422.22;5569059;32;33570;-56
2023/04/18 05:38:25;;;;;;;8.93;6.80;;;;;;;13.80;85.12;100430.00;5569633;32;33633;-56
2023/04/18 05:41:28;;;;;;;9.98;7.30;;;;;;;13.98;87.48;100426.41;5569125;32;33860;-55
2023/04/18 05:44:30;;;;;;;10.80;6.35;;;;;;;13.91;83.06;100430.59;5569530;32;34334;-56
2023/04/18 05:47:32;;;;;;;9.95;6.95;;;;;;;13.99;87.52;100430.69;5568896;32;34270;-56
2023/04/18 05:50:35;;;;;;;11.48;7.18;;;;;;;14.09;84.71;100432.38;5568581;32;34226;-56
2023/04/18 05:53:37;;;;;;;9.63;6.53;;;;;;;14.24;87.13;100423.97;5568447;32;33815;-56
2023/04/18 05:56:40;;;;;;;8.38;6.50;;;;;;;14.34;91.35;100431.06;5568430;32;34895;-56
2023/04/18 05:59:43;;;;;;;9.48;6.03;;;;;;;14.40;89.76;100435.19;5559273;32;33795;-56
2023/04/18 06:02:46;;;;;;;10.13;5.97;;;;;;;14.34;85.52;100437.25;5568890;32;33700;-56
2023/04/18 06:05:49;;;;;;;8.98;6.37;;;;;;;14.31;78.33;100431.66;5568772;32;34229;-56
2023/04/18 06:08:51;;;;;;;9.38;6.32;;;;;;;14.25;79.41;100430.16;5567565;32;33746;-56
2023/04/18 06:11:53;;;;;;;8.60;6.53;;;;;;;14.36;80.83;100438.81;5568491;32;33073;-56
2023/04/18 06:14:55;;;;;;;7.30;5.90;;;;;;;14.47;81.84;100441.00;5568927;32;34222;-56
2023/04/18 06:17:58;;;;;;;8.55;5.97;;;;;;;14.46;79.78;100439.38;5567435;32;34309;-56
2023/04/18 06:21:00;;;;;;;9.10;6.20;;;;;;;14.48;81.12;100447.19;5562763;32;34266;-56
2023/04/18 06:24:03;;;;;;;7.22;5.43;;;;;;;14.46;79.07;100444.78;5563326;32;34565;-56
2023/04/18 06:27:05;;;;;;;7.10;5.47;;;;;;;14.50;79.80;100445.81;5568308;32;34331;-56
2023/04/18 06:30:09;;;;;;;7.70;5.75;;;;;;;14.42;91.50;100443.81;5567557;32;32247;-56
2023/04/18 06:33:11;;;;;;;6.95;5.10;;;;;;;14.62;77.31;100447.16;5557045;32;33567;-56
2023/04/18 06:36:14;;;;;;;8.40;5.43;;;;;;;14.65;80.15;100444.66;5556509;32;33287;-57
2023/04/18 06:39:16;;;;;;;6.10;5.00;;;;;;;14.59;75.35;100450.47;5565485;32;33655;-57
2023/04/18 06:42:18;;;;;;;7.05;5.32;;;;;;;14.54;83.85;100454.91;5566459;32;33529;-59
2023/04/18 06:45:23;;;;;;;7.07;5.05;;;;;;;14.49;74.89;100449.56;5565970;32;34329;-57
2023/04/18 06:48:26;;;;;;;10.55;5.30;;;;;;;14.80;85.54;100451.59;5564556;32;33427;-57
2023/04/18 06:51:28;;;;;;;6.95;5.00;;;;;;;14.98;86.56;100445.22;5565176;32;34442;-57
2023/04/18 06:54:30;;;;;;;6.05;4.62;;;;;;;15.05;81.76;100455.56;5563080;32;32527;-57
2023/04/18 06:57:32;;;;;;;6.37;4.85;;;;;;;15.11;75.00;100451.66;5554469;32;34274;-57
2023/04/18 07:00:35;;;;;;;8.48;4.35;;;;;;;15.17;75.54;100457.72;5565304;32;34428;-57
2023/04/18 07:03:37;;;;;;;6.78;4.57;;;;;;;15.24;75.31;100448.06;5565627;32;33697;-57
2023/04/18 07:06:41;;;;;;;8.88;4.70;;;;;;;15.31;74.41;100461.13;5563428;32;34066;-57
2023/04/18 07:09:44;;;;;;;6.70;5.10;;;;;;;15.16;77.13;100464.22;5564565;31;33685;-57
2023/04/18 07:12:46;;;;;;;6.12;4.50;;;;;;;15.28;76.95;100470.66;5565646;32;33598;-57
2023/04/18 07:15:49;;;;;;;7.28;4.93;;;;;;;15.30;76.37;100462.25;5565042;32;33093;-57
2023/04/18 07:18:51;;;;;;;7.87;5.12;;;;;;;15.39;71.01;100465.78;5565518;32;34311;-57
2023/04/18 07:21:54;;;;;;;7.18;5.05;;;;;;;15.59;78.01;100461.72;5565555;32;33312;-57
2023/04/18 07:24:57;;;;;;;15.20;4.32;;;;;;;15.61;70.02;100464.13;5566139;32;33641;-57
2023/04/18 07:27:59;;;;;;;9.05;4.50;;;;;;;15.51;68.51;100468.69;5565393;32;33738;-57
2023/04/18 07:31:02;;;;;;;7.10;4.87;;;;;;;15.34;78.58;100463.22;5565695;32;33380;-57
2023/04/18 07:34:08;;;;;;;7.15;4.75;;;;;;;15.59;76.59;100466.34;5562827;32;34305;-57
2023/04/18 07:37:11;;;;;;;7.97;4.70;;;;;;;15.52;70.65;100472.19;5567383;32;33423;-57
2023/04/18 07:40:16;;;;;;;6.70;4.30;;;;;;;15.55;71.67;100481.59;5566482;32;34194;-57
2023/04/18 07:43:18;;;;;;;7.22;4.60;;;;;;;15.50;72.51;100487.94;5557633;32;33710;-57
2023/04/18 07:46:22;;;;;;;5.78;4.20;;;;;;;15.72;72.77;100479.00;5557215;32;33237;-57
2023/04/18 07:49:24;;;;;;;5.78;4.25;;;;;;;15.71;75.06;100483.59;5551907;32;33726;-57
2023/04/18 07:52:26;;;;;;;6.62;4.00;;;;;;;15.93;79.25;100485.44;5562541;32;33541;-57
2023/04/18 07:55:29;;;;;;;11.43;4.15;;;;;;;15.63;71.75;100494.34;5567448;32;33636;-57
2023/04/18 07:58:33;;;;;;;7.00;3.80;;;;;;;15.65;76.21;100492.91;5567258;32;33905;-57
2023/04/18 08:01:35;;;;;;;6.37;3.92;;;;;;;15.72;68.36;100492.50;5560166;32;33564;-56
2023/04/18 08:04:38;;;;;;;7.35;4.30;;;;;;;15.66;70.87;100494.56;5561719;32;33602;-57
2023/04/18 08:07:40;;;;;;;4.35;3.20;;;;;;;15.61;77.74;100497.34;5565752;32;34243;-57
2023/04/18 08:10:43;;;;;;;6.93;3.50;;;;;;;15.58;68.15;100502.59;5566511;32;33822;-57
2023/04/18 08:13:45;;;;;;;5.85;4.00;;;;;;;15.62;71.03;100492.75;5563794;32;33856;-57
2023/04/18 08:16:47;;;;;;;7.22;3.55;;;;;;;15.80;76.41;100494.47;5558407;32;33619;-57
2023/04/18 08:19:50;;;;;;;7.55;3.80;;;;;;;15.74;68.45;100495.69;5555425;32;33567;-56
2023/04/18 08:22:52;;;;;;;6.30;3.55;;;;;;;15.85;68.39;100501.63;5558168;32;33765;-57
2023/04/18 08:26:09;;;;;;;4.95;3.47;;;;;;;15.71;66.45;100499.81;5556535;32;33641;-57
2023/04/18 08:29:12;;;;;;;5.95;3.25;;;;;;;15.86;72.53;100501.31;5554819;32;33621;-57
2023/04/18 08:32:14;;;;;;;7.30;3.75;;;;;;;15.85;67.64;100497.00;5563847;32;33559;-57
2023/04/18 08:35:17;;;;;;;6.22;3.60;;;;;;;15.86;68.90;100501.31;5564425;32;33259;-57
2023/04/18 08:38:19;;;;;;;5.55;3.20;;;;;;;16.02;73.42;100504.38;5549628;32;34012;-57
2023/04/18 08:41:22;;;;;;;6.70;3.15;;;;;;;16.06;72.55;100505.37;5559562;32;34275;-57
2023/04/18 08:44:29;;;;;;;5.65;3.08;;;;;;;15.97;67.37;100501.84;5559153;32;34071;-57
2023/04/18 08:47:34;;;;;;;4.62;3.17;;;;;;;16.00;66.77;100503.91;5558868;32;33487;-57
2023/04/18 08:50:36;;;;;;;4.55;3.22;;;;;;;15.83;78.17;100515.47;5555401;32;34353;-56
2023/04/18 08:53:40;;;;;;;7.10;3.25;;;;;;;16.07;75.95;100514.28;5558985;32;34413;-57
2023/04/18 08:56:43;;;;;;;7.45;3.37;;;;;;;16.07;67.77;100511.56;5557093;32;33234;-57
2023/04/18 08:59:46;;;;;;;6.10;3.30;;;;;;;16.02;67.45;100514.41;5565779;32;33886;-56
2023/04/18 09:02:58;;;;;;;6.93;3.78;;;;;;;16.19;75.48;100522.56;5565438;32;33735;-57
2023/04/18 09:06:17;;;;;;;5.20;3.00;;;;;;;16.24;69.98;100510.81;5564548;32;34303;-56
2023/04/18 09:09:26;;;;;;;6.07;2.37;;;;;;;16.27;62.03;100504.78;5567733;32;34304;-56
2023/04/18 09:12:28;;;;;;;4.20;2.20;;;;;;;16.32;61.95;100510.03;5566563;32;33654;-57
2023/04/18 09:15:31;;;;;;;3.97;2.00;;;;;;;16.47;57.91;100501.47;5558234;32;33804;-56
2023/04/18 09:18:34;;;;;;;5.00;2.00;;;;;;;16.70;51.09;100496.72;5565085;32;33779;-57
2023/04/18 09:21:41;;;;;;;3.28;1.95;;;;;;;16.88;58.53;100498.31;5562082;32;33811;-57
2023/04/18 09:24:54;;;;;;;4.43;2.25;;;;;;;17.00;54.79;100494.19;5562823;32;33777;-57
2023/04/18 09:27:59;;;;;;;5.28;2.15;;;;;;;17.09;54.51;100503.09;5565197;32;33699;-57
2023/04/18 09:31:11;;;;;;;3.25;2.12;;;;;;;17.17;57.79;100496.84;5563279;32;32312;-57
2023/04/18 09:34:20;;;;;;;4.45;2.50;;;;;;;17.22;60.03;100495.88;5563603;32;34320;-57
2023/04/18 09:37:23;;;;;;;4.72;2.53;;;;;;;17.18;60.30;100503.88;5564628;32;33630;-57
2023/04/18 09:40:26;;;;;;;7.03;2.50;;;;;;;17.15;55.86;100493.66;5566096;32;33618;-56
2023/04/18 09:43:28;;;;;;;7.30;1.90;;;;;;;17.17;56.80;100496.84;5556417;32;33604;-57
2023/04/18 09:46:31;;;;;;;4.10;2.00;;;;;;;17.31;52.53;100500.16;5567210;32;33746;-57
2023/04/18 09:49:34;;;;;;;5.25;2.03;;;;;;;17.28;54.84;100492.69;5554245;32;33711;-57
2023/04/18 09:52:41;;;;;;;4.35;1.90;;;;;;;17.40;54.62;100500.16;5549578;32;33712;-57
2023/04/18 09:55:44;;;;;;;3.75;2.30;;;;;;;17.49;56.40;100492.81;5562239;32;33585;-57
2023/04/18 09:58:54;;;;;;;4.30;2.30;;;;;;;17.39;57.34;100490.44;5558221;32;33159;-57
2023/04/18 10:02:00;;;;;;;4.57;2.35;;;;;;;17.25;55.03;100496.06;5566263;32;33711;-57
2023/04/18 10:05:06;;;;;;;5.47;2.90;;;;;;;17.27;58.32;100495.72;5564966;32;33670;-57
2023/04/18 10:08:09;;;;;;;6.68;2.83;;;;;;;17.33;64.21;100494.44;5560680;32;33227;-57
2023/04/18 10:11:12;;;;;;;5.68;2.65;;;;;;;17.23;55.94;100495.59;5558899;32;34301;-57
2023/04/18 10:14:15;;;;;;;4.50;2.60;;;;;;;17.16;58.32;100494.50;5559699;32;33881;-57
2023/04/18 10:17:19;;;;;;;9.65;2.62;;;;;;;17.21;57.32;100495.09;5565932;32;34417;-57
2023/04/18 10:20:23;;;;;;;5.90;2.67;;;;;;;17.21;56.11;100486.97;5554003;32;33813;-56
2023/04/18 10:23:34;;;;;;;4.15;2.70;;;;;;;17.16;57.98;100492.56;5562109;32;33793;-57
2023/04/18 10:26:46;;;;;;;4.22;2.60;;;;;;;17.26;57.16;100494.16;5567335;32;34353;-57
2023/04/18 10:29:51;;;;;;;5.70;2.65;;;;;;;17.35;56.25;100494.91;5558440;32;33184;-57
2023/04/18 10:32:54;;;;;;;4.35;3.03;;;;;;;17.30;57.49;100492.38;5563854;32;33502;-57
2023/04/18 10:36:10;;;;;;;3.80;2.65;;;;;;;17.41;54.97;100495.53;5557555;32;33746;-57
2023/04/18 10:39:21;;;;;;;4.85;2.40;;;;;;;17.46;56.38;100495.38;5555679;32;33800;-57
2023/04/18 10:42:45;;;;;;;4.70;2.30;;;;;;;17.51;56.71;100485.13;5559972;32;33650;-57
2023/04/18 10:46:08;;;;;;;5.47;2.50;;;;;;;17.59;53.94;100486.25;5562038;32;33553;-57
2023/04/18 10:49:30;;;;;;;4.87;2.20;;;;;;;17.71;56.64;100475.50;5563399;32;34332;-57
2023/04/18 10:52:34;;;;;;;3.85;2.33;;;;;;;17.67;54.29;100488.09;5567705;32;33583;-57
2023/04/18 10:55:43;;;;;;;4.15;1.98;;;;;;;17.81;56.03;100477.06;5567333;32;34391;-57
2023/04/18 10:58:49;;;;;;;4.50;2.12;;;;;;;17.92;52.00;100474.81;5565683;32;34252;-57
2023/04/18 11:01:55;;;;;;;4.05;2.12;;;;;;;17.98;51.83;100476.19;5568294;32;33411;-57
2023/04/18 11:05:05;;;;;;;5.65;2.45;;;;;;;17.98;49.67;100473.47;5567856;32;33740;-57
2023/04/18 11:08:22;;;;;;;4.00;1.90;;;;;;;18.12;58.00;100476.78;5568007;32;34483;-57
2023/04/18 11:11:24;;;;;;;5.25;2.20;;;;;;;18.11;52.04;100474.37;5567178;32;34289;-57
2023/04/18 11:14:41;;;;;;;7.30;1.83;;;;;;;18.15;49.13;100470.69;5567203;32;33746;-57
2023/04/18 11:17:43;;;;;;;3.78;1.80;;;;;;;18.23;49.67;100471.75;5565051;32;34058;-57
2023/04/18 11:20:48;;;;;;;3.78;1.85;;;;;;;18.22;51.79;100475.59;5563317;32;33769;-57
2023/04/18 11:23:50;;;;;;;3.25;1.83;;;;;;;18.28;49.46;100483.22;5568054;32;33847;-57
2023/04/18 11:26:54;;;;;;;5.68;1.92;;;;;;;18.40;45.95;100477.06;5567851;32;34367;-57
2023/04/18 11:29:57;;;;;;;3.20;1.77;;;;;;;18.45;49.20;100484.22;5566178;32;33797;-57
2023/04/18 11:33:04;;;;;;;5.65;1.67;;;;;;;18.54;46.06;100479.50;5568318;32;33670;-57
2023/04/18 11:36:07;;;;;;;4.15;1.83;;;;;;;18.48;44.86;100481.63;5554522;32;33685;-57
2023/04/18 11:39:09;;;;;;;3.30;1.70;;;;;;;18.52;49.83;100484.47;5548185;32;33587;-57
2023/04/18 11:42:13;;;;;;;5.60;2.30;;;;;;;18.53;45.97;100480.63;5563709;32;33632;-57
2023/04/18 11:45:16;;;;;;;7.25;1.83;;;;;;;18.47;52.19;100484.66;5552433;32;33722;-57
2023/04/18 11:48:19;;;;;;;4.72;2.00;;;;;;;18.40;47.65;100481.69;5561667;32;33636;-57
2023/04/18 11:51:37;;;;;;;4.47;1.77;;;;;;;18.40;48.16;100476.25;5561550;32;34411;-57
2023/04/18 11:54:42;;;;;;;4.18;1.70;;;;;;;18.28;44.46;100469.66;5567533;32;34062;-57
2023/04/18 11:57:52;;;;;;;5.07;1.80;;;;;;;18.37;42.57;100469.56;5566807;32;33741;-57
2023/04/18 12:00:55;;;;;;;4.87;1.77;;;;;;;18.55;42.39;100471.03;5566189;32;33722;-57
2023/04/18 12:04:05;;;;;;;3.37;1.73;;;;;;;18.47;43.61;100469.16;5564748;32;33604;-57
2023/04/18 12:07:08;;;;;;;3.90;1.92;;;;;;;18.52;47.79;100476.34;5555984;32;33786;-56
2023/04/18 12:10:22;;;;;;;4.55;1.92;;;;;;;18.43;53.02;100473.69;5565107;32;34318;-57
2023/04/18 12:13:30;;;;;;;5.43;2.05;;;;;;;18.54;48.27;100474.06;5567762;32;33674;-57
2023/04/18 12:16:33;;;;;;;3.35;2.15;;;;;;;18.22;47.14;100470.97;5557826;32;33606;-57
2023/04/18 12:19:36;;;;;;;5.82;2.03;;;;;;;18.21;50.65;100473.97;5558468;32;34281;-57
2023/04/18 12:22:46;;;;;;;4.35;1.85;;;;;;;18.33;51.06;100476.00;5564006;32;33284;-57
2023/04/18 12:25:57;;;;;;;4.35;2.10;;;;;;;18.34;49.31;100469.44;5568164;32;34365;-57
2023/04/18 12:29:00;;;;;;;2.33;1.87;;;;;;;18.34;47.96;100469.44;5559493;32;33602;-58
2023/04/18 12:32:03;;;;;;;4.10;1.73;;;;;;;18.33;50.21;100470.56;5566010;32;34419;-57
2023/04/18 12:35:07;;;;;;;6.62;1.90;;;;;;;18.45;54.34;100474.16;5567181;32;32313;-57
2023/04/18 12:38:09;;;;;;;4.72;2.17;;;;;;;18.46;48.31;100464.88;5567034;32;32380;-57
2023/04/18 12:41:12;;;;;;;3.80;2.12;;;;;;;18.48;51.86;100470.78;5568874;32;35035;-57
2023/04/18 12:44:14;;;;;;;5.03;2.05;;;;;;;18.53;51.07;100473.28;5569406;32;34363;-57
2023/04/18 12:47:17;;;;;;;3.92;2.00;;;;;;;18.55;44.90;100475.69;5566976;32;33491;-57
2023/04/18 12:50:24;;;;;;;4.60;2.08;;;;;;;18.42;44.58;100468.59;5569340;32;34276;-57
2023/04/18 12:53:27;;;;;;;6.18;2.05;;;;;;;18.37;48.51;100464.13;5564601;32;33699;-57
2023/04/18 12:56:29;;;;;;;3.78;1.77;;;;;;;18.43;47.50;100470.19;5564545;32;34438;-57
2023/04/18 12:59:32;;;;;;;4.65;2.00;;;;;;;18.43;47.17;100464.75;5551560;32;33676;-57
2023/04/18 13:02:36;;;;;;;4.68;2.28;;;;;;;18.38;45.28;100467.66;5550295;32;33708;-57
2023/04/18 13:05:38;;;;;;;4.47;2.35;;;;;;;18.46;54.54;100469.50;5555563;32;34020;-57
2023/04/18 13:08:41;;;;;;;10.88;2.17;;;;;;;18.52;54.03;100466.28;5560114;32;33924;-57
2023/04/18 13:11:44;;;;;;;5.87;2.20;;;;;;;18.47;46.37;100469.16;5551425;32;33720;-57
2023/04/18 13:14:47;;;;;;;4.07;1.58;;;;;;;18.45;41.06;100473.38;5557496;32;34440;-57
2023/04/18 13:17:49;;;;;;;11.12;2.03;;;;;;;18.44;41.12;100475.28;5559912;32;33208;-57
2023/04/18 13:20:52;;;;;;;7.15;1.85;;;;;;;18.37;42.67;100474.22;5558944;32;33813;-57
2023/04/18 13:23:55;;;;;;;3.90;2.08;;;;;;;18.37;39.87;100471.50;5567825;32;33674;-57
2023/04/18 13:26:58;;;;;;;7.82;2.20;;;;;;;18.50;44.52;100471.22;5567761;32;33701;-57
2023/04/18 13:30:01;;;;;;;9.25;1.90;;;;;;;18.55;42.30;100473.75;5568215;32;33575;-57
2023/04/18 13:33:03;;;;;;;4.45;2.10;;;;;;;18.52;40.11;100473.63;5562739;32;33458;-57
2023/04/18 13:36:07;;;;;;;4.80;2.10;;;;;;;18.54;41.13;100471.34;5569087;32;34034;-57
2023/04/18 13:39:13;;;;;;;5.80;2.03;;;;;;;18.60;38.43;100464.59;5567139;32;33849;-57
2023/04/18 13:42:18;;;;;;;6.22;2.22;;;;;;;18.56;39.48;100463.69;5560167;32;33717;-57
2023/04/18 13:45:20;;;;;;;8.23;2.25;;;;;;;18.60;41.27;100466.53;5563809;32;33341;-57
2023/04/18 13:48:23;;;;;;;5.25;1.90;;;;;;;18.61;39.98;100459.97;5564186;32;33808;-57
2023/04/18 13:51:25;;;;;;;5.87;2.35;;;;;;;18.75;38.83;100469.47;5567769;32;33693;-57
2023/04/18 13:54:30;;;;;;;4.45;2.17;;;;;;;18.68;39.96;100471.91;5555376;32;33990;-57
2023/04/18 13:57:32;;;;;;;7.05;2.10;;;;;;;18.71;38.07;100463.09;5567110;32;33795;-57
2023/04/18 14:00:34;;;;;;;5.60;1.90;;;;;;;18.73;39.15;100474.44;5560897;32;33648;-57
2023/04/18 14:03:37;;;;;;;5.57;2.05;;;;;;;18.71;38.08;100470.44;5566360;32;33747;-57
2023/04/18 14:06:42;;;;;;;6.30;1.93;;;;;;;18.77;38.80;100471.84;5561525;32;34393;-57
2023/04/18 14:09:46;;;;;;;6.05;1.80;;;;;;;18.80;36.06;100465.75;5551689;32;33561;-57
2023/04/18 14:12:49;;;;;;;5.07;1.90;;;;;;;18.81;37.11;100463.81;5563432;32;33423;-56
2023/04/18 14:15:52;;;;;;;7.57;2.17;;;;;;;18.85;36.22;100465.56;5558989;32;34345;-57
2023/04/18 14:18:55;;;;;;;7.18;1.98;;;;;;;18.71;39.17;100452.22;5562816;32;34497;-57
2023/04/18 14:21:58;;;;;;;8.23;2.17;;;;;;;18.80;38.71;100456.81;5561011;32;33778;-57
2023/04/18 14:25:00;;;;;;;5.85;2.15;;;;;;;18.90;37.69;100454.47;5562666;32;34579;-56
2023/04/18 14:28:07;;;;;;;6.28;2.00;;;;;;;18.83;34.14;100450.72;5565190;32;34340;-57
2023/04/18 14:31:09;;;;;;;4.53;1.90;;;;;;;18.83;35.93;100456.94;5557269;32;33698;-57
2023/04/18 14:34:12;;;;;;;4.47;2.28;;;;;;;18.78;32.61;100455.22;5549876;32;34529;-57
2023/04/18 14:37:14;;;;;;;4.35;1.90;;;;;;;18.77;34.40;100456.38;5549789;32;33279;-57
2023/04/18 14:40:19;;;;;;;6.22;2.22;;;;;;;18.81;33.42;100452.94;5568056;32;33615;-57
2023/04/18 14:43:21;;;;;;;8.95;2.22;;;;;;;18.73;35.34;100450.00;5561817;32;34557;-57
2023/04/18 14:46:24;;;;;;;5.18;1.90;;;;;;;18.76;35.30;100453.97;5569003;32;33602;-57
2023/04/18 14:49:26;;;;;;;3.85;1.90;;;;;;;18.83;36.84;100461.56;5568068;32;33821;-58
2023/04/18 14:52:28;;;;;;;3.83;1.80;;;;;;;18.74;35.58;100456.22;5569067;32;33635;-57
2023/04/18 14:55:31;;;;;;;5.50;1.90;;;;;;;18.81;36.38;100456.50;5566401;32;33136;-57
2023/04/18 14:58:35;;;;;;;4.25;1.75;;;;;;;18.85;33.47;100457.41;5568748;32;34418;-57
2023/04/18 15:01:37;;;;;;;3.40;2.03;;;;;;;18.84;35.50;100466.69;5568538;32;33786;-57
2023/04/18 15:04:39;;;;;;;4.95;2.30;;;;;;;18.82;35.09;100462.72;5568552;32;34329;-57
2023/04/18 15:07:43;;;;;;;6.60;2.00;;;;;;;18.76;34.38;100462.91;5568406;32;33838;-57
2023/04/18 15:10:46;;;;;;;8.98;3.55;;;;;;;18.67;37.12;100466.78;5568492;32;33665;-57
2023/04/18 15:13:49;;;;;;;5.05;2.10;;;;;;;18.71;40.83;100462.31;5568101;32;34029;-57
2023/04/18 15:16:51;;;;;;;4.57;2.20;;;;;;;18.69;40.29;100465.34;5566797;32;33810;-57
2023/04/18 15:19:54;;;;;;;5.32;2.20;;;;;;;18.65;36.90;100450.06;5567255;32;34435;-57
2023/04/18 15:22:56;;;;;;;4.55;2.12;;;;;;;18.68;41.31;100458.31;5568820;32;33681;-58
2023/04/18 15:25:58;;;;;;;4.10;2.05;;;;;;;18.72;35.69;100461.19;5568389;32;33869;-57
2023/04/18 15:29:02;;;;;;;6.18;1.83;;;;;;;18.65;36.95;100469.06;5568523;32;33620;-57
